createdAt,value
2022-10-17T00:00:34.452Z,2.27
2022-10-17T00:03:01.915Z,2.30
2022-10-17T00:05:29.462Z,2.20
2022-10-17T00:07:56.951Z,2.27
2022-10-17T00:10:25.068Z,2.40
2022-10-17T00:12:53.103Z,2.47
2022-10-17T00:15:22.415Z,2.40
2022-10-17T00:17:51.264Z,2.43
2022-10-17T00:20:18.935Z,2.40
2022-10-17T00:22:46.404Z,2.40
2022-10-17T00:25:14.111Z,2.90
2022-10-17T00:27:42.439Z,2.27
2022-10-17T00:30:13.278Z,2.47
2022-10-17T00:32:40.883Z,2.47
2022-10-17T00:35:10.711Z,2.70
2022-10-17T00:37:38.481Z,2.63
2022-10-17T00:40:07.222Z,2.63
2022-10-17T00:42:35.115Z,2.50
2022-10-17T00:45:14.461Z,2.60
2022-10-17T00:47:43.571Z,2.60
2022-10-17T00:50:14.183Z,2.47
2022-10-17T00:52:42.552Z,2.23
2022-10-17T00:55:17.364Z,2.53
2022-10-17T00:57:46.573Z,2.33
2022-10-17T01:00:14.942Z,2.23
2022-10-17T01:02:42.637Z,2.50
2022-10-17T01:05:12.503Z,2.33
2022-10-17T01:07:42.318Z,2.13
2022-10-17T01:10:11.611Z,2.33
2022-10-17T01:12:47.062Z,2.50
2022-10-17T01:15:25.970Z,2.43
2022-10-17T01:18:05.186Z,2.50
2022-10-17T01:20:57.582Z,2.90
2022-10-17T01:24:10.510Z,2.63
2022-10-17T01:26:56.949Z,2.57
2022-10-17T01:29:45.621Z,2.43
2022-10-17T01:32:17.338Z,3.10
2022-10-17T01:34:51.992Z,2.60
2022-10-17T01:37:27.492Z,2.40
2022-10-17T01:40:01.176Z,2.60
2022-10-17T01:42:34.474Z,2.73
2022-10-17T01:45:08.811Z,2.63
2022-10-17T01:47:38.482Z,2.83
2022-10-17T01:50:11.566Z,2.80
2022-10-17T01:52:44.035Z,2.80
2022-10-17T01:55:15.140Z,2.47
2022-10-17T01:57:47.710Z,2.83
2022-10-17T02:00:19.899Z,2.60
2022-10-17T02:02:50.775Z,2.50
2022-10-17T02:05:20.022Z,3.07
2022-10-17T02:07:47.491Z,2.70
2022-10-17T02:10:32.639Z,2.70
2022-10-17T02:13:07.604Z,2.60
2022-10-17T02:15:47.711Z,2.90
2022-10-17T02:18:30.259Z,2.20
2022-10-17T02:21:04.638Z,2.20
2022-10-17T02:23:38.710Z,2.37
2022-10-17T02:26:13.379Z,2.50
2022-10-17T02:28:48.272Z,2.80
2022-10-17T02:31:19.009Z,2.57
2022-10-17T02:33:51.066Z,2.43
2022-10-17T02:36:23.478Z,2.23
2022-10-17T02:38:52.519Z,2.50
2022-10-17T02:41:22.196Z,2.80
2022-10-17T02:43:51.310Z,2.50
2022-10-17T02:46:22.005Z,2.47
2022-10-17T02:48:54.126Z,2.67
2022-10-17T02:51:29.014Z,2.77
2022-10-17T02:54:03.805Z,2.87
2022-10-17T02:56:36.450Z,2.97
2022-10-17T02:59:07.438Z,2.97
2022-10-17T03:01:36.500Z,3.03
2022-10-17T03:04:10.862Z,3.03
2022-10-17T03:06:38.641Z,3.00
2022-10-17T03:09:06.098Z,2.90
2022-10-17T03:11:33.582Z,2.87
2022-10-17T03:14:00.995Z,2.73
2022-10-17T03:16:28.433Z,3.17
2022-10-17T03:18:55.919Z,3.50
2022-10-17T03:21:24.915Z,3.17
2022-10-17T03:23:52.327Z,3.23
2022-10-17T03:26:19.818Z,3.10
2022-10-17T03:28:50.649Z,2.83
2022-10-17T03:31:20.963Z,3.20
2022-10-17T03:33:48.367Z,3.03
2022-10-17T03:36:17.575Z,3.33
2022-10-17T03:38:46.964Z,3.10
2022-10-17T03:41:14.818Z,3.37
2022-10-17T03:43:42.226Z,2.77
2022-10-17T03:46:09.714Z,3.27
2022-10-17T03:48:37.174Z,3.30
2022-10-17T03:51:06.901Z,2.90
2022-10-17T03:53:34.527Z,3.10
2022-10-17T03:56:12.048Z,3.27
2022-10-17T03:58:40.094Z,3.30
2022-10-17T04:01:08.466Z,3.20
2022-10-17T04:03:35.917Z,3.00
2022-10-17T04:06:05.469Z,3.07
2022-10-17T04:08:33.857Z,3.20
2022-10-17T04:11:01.935Z,3.40
2022-10-17T04:13:31.419Z,3.20
2022-10-17T04:16:00.559Z,3.00
2022-10-17T04:18:28.265Z,3.30
2022-10-17T04:20:55.694Z,3.20
2022-10-17T04:23:23.643Z,2.90
2022-10-17T04:25:51.047Z,3.37
2022-10-17T04:28:18.474Z,3.30
2022-10-17T04:30:49.910Z,3.57
2022-10-17T04:33:18.406Z,3.13
2022-10-17T04:35:55.471Z,3.47
2022-10-17T04:38:26.244Z,3.47
2022-10-17T04:40:57.769Z,3.30
2022-10-17T04:43:25.286Z,3.30
2022-10-17T04:45:54.062Z,3.23
2022-10-17T04:48:21.753Z,3.17
2022-10-17T04:50:55.543Z,3.10
2022-10-17T04:53:23.381Z,3.40
2022-10-17T04:55:51.242Z,3.23
2022-10-17T04:58:19.838Z,3.43
2022-10-17T05:00:47.727Z,3.50
2022-10-17T05:03:16.947Z,3.40
2022-10-17T05:05:44.711Z,3.67
2022-10-17T05:08:12.777Z,3.40
2022-10-17T05:10:41.667Z,3.07
2022-10-17T05:13:09.616Z,3.33
2022-10-17T05:15:38.225Z,3.47
2022-10-17T05:18:06.643Z,3.13
2022-10-17T05:20:35.933Z,3.07
2022-10-17T05:23:03.807Z,3.17
2022-10-17T05:25:31.243Z,3.30
2022-10-17T05:27:58.683Z,2.97
2022-10-17T05:30:26.102Z,2.90
2022-10-17T05:32:55.507Z,2.90
2022-10-17T05:35:23.302Z,2.97
2022-10-17T05:37:52.058Z,3.37
2022-10-17T05:40:19.482Z,3.00
2022-10-17T05:42:47.625Z,3.03
2022-10-17T05:45:15.561Z,3.27
2022-10-17T05:47:43.098Z,3.13
2022-10-17T05:50:10.930Z,3.03
2022-10-17T05:52:38.495Z,3.20
2022-10-17T05:55:08.487Z,3.20
2022-10-17T05:57:36.368Z,3.27
2022-10-17T06:00:04.743Z,3.33
2022-10-17T06:02:33.240Z,3.63
2022-10-17T06:05:00.923Z,3.37
2022-10-17T06:07:28.394Z,3.23
2022-10-17T06:09:55.793Z,3.60
2022-10-17T06:12:24.530Z,3.63
2022-10-17T06:14:51.952Z,3.33
2022-10-17T06:17:19.370Z,3.40
2022-10-17T06:19:46.790Z,3.40
2022-10-17T06:22:14.393Z,3.30
2022-10-17T06:24:42.223Z,3.43
2022-10-17T06:27:12.082Z,3.00
2022-10-17T06:29:41.115Z,3.23
2022-10-17T06:32:11.263Z,3.00
2022-10-17T06:34:41.830Z,2.90
2022-10-17T06:37:09.248Z,3.20
2022-10-17T06:39:36.993Z,2.93
2022-10-17T06:42:05.298Z,2.80
2022-10-17T06:44:32.693Z,3.10
2022-10-17T06:47:01.934Z,3.20
2022-10-17T06:49:29.731Z,3.27
2022-10-17T06:51:57.144Z,3.30
2022-10-17T06:54:24.600Z,3.50
2022-10-17T06:56:52.007Z,3.20
2022-10-17T06:59:19.445Z,3.60
2022-10-17T07:01:47.232Z,3.17
2022-10-17T07:04:16.090Z,3.47
2022-10-17T07:06:43.514Z,3.50
2022-10-17T07:09:11.034Z,3.37
2022-10-17T07:11:40.100Z,3.30
2022-10-17T07:14:07.524Z,3.60
2022-10-17T07:16:35.017Z,3.53
2022-10-17T07:19:02.787Z,3.30
2022-10-17T07:21:35.220Z,3.50
2022-10-17T07:24:07.071Z,3.60
2022-10-17T07:26:34.786Z,3.50
2022-10-17T07:29:02.531Z,3.47
2022-10-17T07:31:30.009Z,3.37
2022-10-17T07:33:57.444Z,3.90
2022-10-17T07:36:24.852Z,3.40
2022-10-17T07:38:53.601Z,3.23
2022-10-17T07:41:21.925Z,3.40
2022-10-17T07:43:49.946Z,3.57
2022-10-17T07:46:17.362Z,3.60
2022-10-17T07:48:44.779Z,3.60
2022-10-17T07:51:12.174Z,3.20
2022-10-17T07:53:42.663Z,3.07
2022-10-17T07:56:14.038Z,3.13
2022-10-17T07:58:41.580Z,3.40
2022-10-17T08:01:15.424Z,3.57
2022-10-17T08:03:45.231Z,3.60
2022-10-17T08:06:13.383Z,3.50
2022-10-17T08:08:41.357Z,3.30
2022-10-17T08:11:11.154Z,3.33
2022-10-17T08:13:40.428Z,3.23
2022-10-17T08:16:10.724Z,3.37
2022-10-17T08:18:39.790Z,3.20
2022-10-17T08:21:08.292Z,3.10
2022-10-17T08:23:36.619Z,3.13
2022-10-17T08:26:06.028Z,3.08
2022-10-17T08:28:35.889Z,3.22
2022-10-17T08:31:06.322Z,3.30
2022-10-17T08:33:34.125Z,2.60
2022-10-17T08:36:02.268Z,3.05
2022-10-17T08:38:34.664Z,3.05
2022-10-17T08:41:05.158Z,3.30
2022-10-17T08:43:48.193Z,3.10
2022-10-17T08:46:17.328Z,3.40
2022-10-17T08:48:47.580Z,3.00
2022-10-17T08:51:19.011Z,2.55
2022-10-17T08:53:52.486Z,2.92
2022-10-17T08:56:30.337Z,3.20
2022-10-17T08:59:13.759Z,2.80
2022-10-17T09:01:48.791Z,2.80
2022-10-17T09:04:36.282Z,3.00
2022-10-17T09:07:11.656Z,2.75
2022-10-17T09:09:49.363Z,2.70
2022-10-17T09:12:21.403Z,2.72
2022-10-17T09:15:15.498Z,2.78
2022-10-17T09:17:52.498Z,2.70
2022-10-17T09:20:23.307Z,2.40
2022-10-17T09:25:29.734Z,2.70
2022-10-17T09:28:11.374Z,2.70
2022-10-17T09:30:45.593Z,2.60
2022-10-17T09:33:34.922Z,2.35
2022-10-17T09:36:10.089Z,2.42
2022-10-17T09:38:41.225Z,2.60
2022-10-17T09:44:15.558Z,2.70
2022-10-17T09:46:47.364Z,2.83
2022-10-17T09:49:20.762Z,3.10
2022-10-17T09:51:49.078Z,2.63
2022-10-17T09:54:22.735Z,2.63
2022-10-17T09:57:02.082Z,2.60
2022-10-17T09:59:34.393Z,2.90
2022-10-17T10:02:10.059Z,2.20
2022-10-17T10:05:08.529Z,2.65
2022-10-17T10:07:38.869Z,2.40
2022-10-17T10:10:08.719Z,2.45
2022-10-17T10:12:38.734Z,2.42
2022-10-17T10:15:33.269Z,2.53
2022-10-17T10:18:00.872Z,2.47
2022-10-17T10:20:33.821Z,2.40
2022-10-17T10:23:17.140Z,2.58
2022-10-17T10:25:55.059Z,2.22
2022-10-17T10:28:26.047Z,2.53
2022-10-17T10:30:55.279Z,2.28
2022-10-17T10:33:26.211Z,2.42
2022-10-17T10:35:58.323Z,2.55
2022-10-17T10:38:26.263Z,2.25
2022-10-17T10:40:56.287Z,2.45
2022-10-17T10:43:33.996Z,2.40
2022-10-17T10:46:01.899Z,2.28
2022-10-17T10:48:33.309Z,2.40
2022-10-17T10:51:06.041Z,2.35
2022-10-17T10:53:42.216Z,2.17
2022-10-17T10:56:17.086Z,2.10
2022-10-17T10:58:53.970Z,2.10
2022-10-17T11:01:28.202Z,1.98
2022-10-17T11:04:18.385Z,2.17
2022-10-17T11:06:48.407Z,2.08
2022-10-17T11:09:31.450Z,2.05
2022-10-17T11:12:07.012Z,1.90
2022-10-17T11:14:44.375Z,2.38
2022-10-17T11:17:20.717Z,1.88
2022-10-17T11:19:56.442Z,1.83
2022-10-17T11:22:32.423Z,2.30
2022-10-17T11:25:04.602Z,1.80
2022-10-17T11:27:32.670Z,1.75
2022-10-17T11:30:00.277Z,1.98
2022-10-17T11:32:32.743Z,2.00
2022-10-17T11:35:04.913Z,1.90
2022-10-17T11:37:40.738Z,1.80
2022-10-17T11:40:19.250Z,1.98
2022-10-17T11:42:57.974Z,1.95
2022-10-17T11:45:30.186Z,1.85
2022-10-17T11:48:05.699Z,1.90
2022-10-17T11:53:26.829Z,2.20
2022-10-17T11:55:58.883Z,1.88
2022-10-17T11:58:33.839Z,1.83
2022-10-17T12:01:11.728Z,1.80
2022-10-17T12:04:12.511Z,1.80
2022-10-17T12:06:51.224Z,1.70
2022-10-17T12:09:30.433Z,1.85
2022-10-17T12:12:00.407Z,1.80
2022-10-17T12:14:42.463Z,1.60
2022-10-17T12:17:28.949Z,1.80
2022-10-17T12:20:28.647Z,1.88
2022-10-17T12:22:57.877Z,1.85
2022-10-17T12:25:29.834Z,1.80
2022-10-17T12:28:13.041Z,1.67
2022-10-17T12:30:51.648Z,1.75
2022-10-17T12:33:22.340Z,1.80
2022-10-17T12:35:51.189Z,1.70
2022-10-17T12:38:27.413Z,1.63
2022-10-17T12:41:01.221Z,1.67
2022-10-17T12:43:55.955Z,1.80
2022-10-17T12:46:57.489Z,1.80
2022-10-17T12:49:52.030Z,1.90
2022-10-17T12:52:57.657Z,1.75
2022-10-17T12:55:26.226Z,1.60
2022-10-17T12:58:02.444Z,2.00
2022-10-17T13:00:35.640Z,2.03
2022-10-17T13:03:07.433Z,1.60
2022-10-17T13:05:38.167Z,1.80
2022-10-17T13:08:08.356Z,1.83
2022-10-17T13:10:43.076Z,1.52
2022-10-17T13:13:19.040Z,1.67
2022-10-17T13:15:47.954Z,1.63
2022-10-17T13:18:21.160Z,1.90
2022-10-17T13:21:00.157Z,1.70
2022-10-17T13:23:33.107Z,1.80
2022-10-17T13:26:13.631Z,1.65
2022-10-17T13:28:42.775Z,1.90
2022-10-17T13:31:28.878Z,1.60
2022-10-17T13:33:58.673Z,1.70
2022-10-17T13:36:27.250Z,1.80
2022-10-17T13:38:55.073Z,1.73
2022-10-17T13:41:35.802Z,1.80
2022-10-17T13:44:13.523Z,1.80
2022-10-17T13:46:41.512Z,1.73
2022-10-17T13:49:18.737Z,1.63
2022-10-17T13:51:48.947Z,1.67
2022-10-17T13:54:32.397Z,1.73
2022-10-17T13:57:01.467Z,1.55
2022-10-17T13:59:35.007Z,1.42
2022-10-17T14:02:03.134Z,1.70
2022-10-17T14:04:44.739Z,1.67
2022-10-17T14:07:26.610Z,1.90
2022-10-17T14:09:54.582Z,1.77
2022-10-17T14:12:23.266Z,1.83
2022-10-17T14:15:11.171Z,1.73
2022-10-17T14:17:40.277Z,1.70
2022-10-17T14:20:57.167Z,1.48
2022-10-17T14:23:21.596Z,1.67
2022-10-17T14:25:46.068Z,1.80
2022-10-17T14:28:16.823Z,1.60
2022-10-17T14:31:02.172Z,1.73
2022-10-17T14:33:32.147Z,1.73
2022-10-17T14:36:02.303Z,1.60
2022-10-17T14:38:30.967Z,1.50
2022-10-17T14:41:37.729Z,1.73
2022-10-17T14:43:55.370Z,1.58
2022-10-17T14:46:25.223Z,1.60
2022-10-17T14:48:55.340Z,1.50
2022-10-17T14:51:23.054Z,1.70
2022-10-17T14:54:05.748Z,1.70
2022-10-17T14:56:40.797Z,2.13
2022-10-17T14:59:13.754Z,1.80
2022-10-17T15:01:44.491Z,1.75
2022-10-17T15:04:11.889Z,1.95
2022-10-17T15:06:40.479Z,2.00
2022-10-17T15:09:08.346Z,1.65
2022-10-17T15:11:35.747Z,1.98
2022-10-17T15:14:03.164Z,1.95
2022-10-17T15:16:32.931Z,1.85
2022-10-17T15:19:02.135Z,1.67
2022-10-17T15:21:47.214Z,1.60
2022-10-17T15:24:15.688Z,1.80
2022-10-17T15:26:43.233Z,1.90
2022-10-17T15:29:14.913Z,1.88
2022-10-17T15:31:42.434Z,2.15
2022-10-17T15:34:11.202Z,2.00
2022-10-17T15:36:41.438Z,2.00
2022-10-17T15:39:10.743Z,1.70
2022-10-17T15:41:38.170Z,2.55
2022-10-17T15:44:06.141Z,1.88
2022-10-17T15:46:35.561Z,1.77
2022-10-17T15:49:07.356Z,1.83
2022-10-17T15:51:36.132Z,1.77
2022-10-17T15:54:04.942Z,1.85
2022-10-17T15:56:36.090Z,1.70
2022-10-17T15:59:04.655Z,1.70
2022-10-17T16:01:34.006Z,1.80
2022-10-17T16:04:01.540Z,1.70
2022-10-17T16:06:29.220Z,1.77
2022-10-17T16:08:57.968Z,1.67
2022-10-17T16:11:31.602Z,2.13
2022-10-17T16:14:01.158Z,1.92
2022-10-17T16:16:28.620Z,1.80
2022-10-17T16:18:56.196Z,1.80
2022-10-17T16:21:26.106Z,1.90
2022-10-17T16:23:54.115Z,1.83
2022-10-17T16:26:22.885Z,1.80
2022-10-17T16:28:50.370Z,1.83
2022-10-17T16:31:22.245Z,1.73
2022-10-17T16:33:52.560Z,1.65
2022-10-17T16:36:20.251Z,2.08
2022-10-17T16:38:49.524Z,2.25
2022-10-17T16:41:24.514Z,1.80
2022-10-17T16:43:53.282Z,2.00
2022-10-17T16:46:21.501Z,1.95
2022-10-17T16:48:49.134Z,1.77
2022-10-17T16:51:18.694Z,1.70
2022-10-17T16:53:46.923Z,2.10
2022-10-17T16:56:17.788Z,1.90
2022-10-17T16:58:47.325Z,2.08
2022-10-17T17:01:16.317Z,2.10
2022-10-17T17:03:46.478Z,1.75
2022-10-17T17:06:16.310Z,2.63
2022-10-17T17:08:44.382Z,1.97
2022-10-17T17:11:14.600Z,2.00
2022-10-17T17:13:42.380Z,2.10
2022-10-17T17:16:13.131Z,2.05
2022-10-17T17:18:42.683Z,2.20
2022-10-17T17:21:11.470Z,1.80
2022-10-17T17:23:41.746Z,2.10
2022-10-17T17:26:11.783Z,1.77
2022-10-17T17:28:40.005Z,2.07
2022-10-17T17:31:09.551Z,2.20
2022-10-17T17:33:40.064Z,1.80
2022-10-17T17:36:08.116Z,1.70
2022-10-17T17:38:37.079Z,1.70
2022-10-17T17:41:05.261Z,2.00
2022-10-17T17:43:32.678Z,1.90
2022-10-17T17:46:01.950Z,2.00
2022-10-17T17:48:29.456Z,2.00
2022-10-17T17:50:58.362Z,2.20
2022-10-17T17:53:25.785Z,1.97
2022-10-17T17:56:02.200Z,1.80
2022-10-17T17:58:29.628Z,1.80
2022-10-17T18:00:57.105Z,2.33
2022-10-17T18:03:25.006Z,2.00
2022-10-17T18:05:52.777Z,1.70
2022-10-17T18:08:21.849Z,1.90
2022-10-17T18:10:49.554Z,1.67
2022-10-17T18:13:17.542Z,1.90
2022-10-17T18:15:46.296Z,1.60
2022-10-17T18:18:13.922Z,1.97
2022-10-17T18:20:42.369Z,1.50
2022-10-17T18:23:09.924Z,1.90
2022-10-17T18:25:38.654Z,1.87
2022-10-17T18:28:06.451Z,1.97
2022-10-17T18:30:36.903Z,1.90
2022-10-17T18:33:04.443Z,1.87
2022-10-17T18:35:32.069Z,1.90
2022-10-17T18:37:59.542Z,1.97
2022-10-17T18:40:28.135Z,1.93
2022-10-17T18:42:56.915Z,1.70
2022-10-17T18:45:24.343Z,2.10
2022-10-17T18:47:52.630Z,1.57
2022-10-17T18:50:21.131Z,1.57
2022-10-17T18:52:49.143Z,1.90
2022-10-17T18:55:19.602Z,2.00
2022-10-17T18:57:49.170Z,1.67
2022-10-17T19:00:18.293Z,1.40
2022-10-17T19:02:46.122Z,1.70
2022-10-17T19:05:13.514Z,1.90
2022-10-17T19:07:41.444Z,1.53
2022-10-17T19:10:09.506Z,1.77
2022-10-17T19:12:36.902Z,1.60
2022-10-17T19:15:04.849Z,1.80
2022-10-17T19:17:33.869Z,1.57
2022-10-17T19:20:01.321Z,1.50
2022-10-17T19:22:31.137Z,2.07
2022-10-17T19:24:58.541Z,1.97
2022-10-17T19:27:25.960Z,1.70
2022-10-17T19:29:53.362Z,2.00
2022-10-17T19:32:22.834Z,1.70
2022-10-17T19:34:51.789Z,2.00
2022-10-17T19:37:19.311Z,1.67
2022-10-17T19:39:46.703Z,1.83
2022-10-17T19:42:14.093Z,1.53
2022-10-17T19:44:41.794Z,1.47
2022-10-17T19:47:09.177Z,2.00
2022-10-17T19:49:36.731Z,1.50
2022-10-17T19:52:05.724Z,1.70
2022-10-17T19:54:33.430Z,1.50
2022-10-17T19:57:00.848Z,1.87
2022-10-17T19:59:28.567Z,1.70
2022-10-17T20:01:56.047Z,1.60
2022-10-17T20:04:24.104Z,1.60
2022-10-17T20:06:51.530Z,2.00
2022-10-17T20:09:20.802Z,1.90
2022-10-17T20:11:50.228Z,2.13
2022-10-17T20:14:17.741Z,2.30
2022-10-17T20:16:50.013Z,2.00
2022-10-17T20:19:17.419Z,2.40
2022-10-17T20:21:44.911Z,2.10
2022-10-17T20:24:14.735Z,2.27
2022-10-17T20:26:44.524Z,2.60
2022-10-17T20:29:14.546Z,2.23
2022-10-17T20:31:43.474Z,2.20
2022-10-17T20:34:13.498Z,2.10
2022-10-17T20:36:41.483Z,2.30
2022-10-17T20:39:10.801Z,2.60
2022-10-17T20:41:38.234Z,2.57
2022-10-17T20:44:07.710Z,2.40
2022-10-17T20:46:37.354Z,2.17
2022-10-17T20:49:06.190Z,2.30
2022-10-17T20:51:34.291Z,2.43
2022-10-17T20:54:02.412Z,2.40
2022-10-17T20:56:31.518Z,2.10
2022-10-17T20:59:00.756Z,1.80
2022-10-17T21:01:30.838Z,2.50
2022-10-17T21:04:06.129Z,2.53
2022-10-17T21:06:43.726Z,2.07
2022-10-17T21:09:11.319Z,2.43
2022-10-17T21:11:38.875Z,2.33
2022-10-17T21:14:07.864Z,2.10
2022-10-17T21:16:37.748Z,2.10
2022-10-17T21:19:06.781Z,2.30
2022-10-17T21:21:36.463Z,1.67
2022-10-17T21:24:06.191Z,1.80
2022-10-17T21:26:34.819Z,1.70
2022-10-17T21:29:05.411Z,2.13
2022-10-17T21:31:34.613Z,1.90
2022-10-17T21:34:09.334Z,1.90
2022-10-17T21:36:37.425Z,2.10
2022-10-17T21:39:05.626Z,2.00
2022-10-17T21:41:33.393Z,1.97
2022-10-17T21:44:02.669Z,1.97
2022-10-17T21:46:31.017Z,2.00
2022-10-17T21:49:00.032Z,2.30
2022-10-17T21:51:29.327Z,2.13
2022-10-17T21:53:58.476Z,2.00
2022-10-17T21:56:28.548Z,2.17
2022-10-17T21:58:56.328Z,2.10
2022-10-17T22:01:26.136Z,2.20
2022-10-17T22:03:55.163Z,2.27
2022-10-17T22:06:39.301Z,2.10
2022-10-17T22:09:12.382Z,2.30
2022-10-17T22:11:40.150Z,2.10
2022-10-17T22:14:13.026Z,1.97
2022-10-17T22:16:41.197Z,2.33
2022-10-17T22:19:09.421Z,2.33
2022-10-17T22:21:37.939Z,2.60
2022-10-17T22:24:07.115Z,2.43
2022-10-17T22:26:37.917Z,2.50
2022-10-17T22:29:06.934Z,2.43
2022-10-17T22:31:34.795Z,2.27
2022-10-17T22:34:03.539Z,2.50
2022-10-17T22:36:32.999Z,2.50
2022-10-17T22:39:00.409Z,2.50
2022-10-17T22:41:27.822Z,3.00
2022-10-17T22:43:56.577Z,2.20
2022-10-17T22:46:24.003Z,2.20
2022-10-17T22:48:51.405Z,2.03
2022-10-17T22:51:18.920Z,2.43
2022-10-17T22:53:46.630Z,2.50
2022-10-17T22:56:16.077Z,2.20
2022-10-17T22:58:43.603Z,2.30
2022-10-17T23:01:15.642Z,2.60
2022-10-17T23:03:43.230Z,2.20
2022-10-17T23:06:11.313Z,2.53
2022-10-17T23:08:39.229Z,3.03
2022-10-17T23:11:07.030Z,2.77
2022-10-17T23:13:34.635Z,3.70
2022-10-17T23:16:02.049Z,3.20
2022-10-17T23:21:03.268Z,3.60
2022-10-17T23:23:30.747Z,3.47
2022-10-17T23:26:04.867Z,3.50
2022-10-17T23:28:33.541Z,3.40
2022-10-17T23:31:09.539Z,3.30
2022-10-17T23:33:41.026Z,3.10
2022-10-17T23:36:09.630Z,2.90
2022-10-17T23:38:37.174Z,3.07
2022-10-17T23:41:04.915Z,2.90
2022-10-17T23:43:34.045Z,2.90
2022-10-17T23:46:01.872Z,3.40
2022-10-17T23:48:29.715Z,3.13
2022-10-17T23:50:58.487Z,3.20
2022-10-17T23:53:26.569Z,2.97
2022-10-17T23:55:54.007Z,3.10
2022-10-17T23:58:21.424Z,3.30
